createdAt,value
2023-03-29T00:02:33.715Z,4.18
2023-03-29T00:05:05.425Z,4.08
2023-03-29T00:07:36.059Z,4.01
2023-03-29T00:10:05.291Z,4.12
2023-03-29T00:12:32.773Z,3.90
2023-03-29T00:15:00.034Z,4.08
2023-03-29T00:17:27.414Z,4.02
2023-03-29T00:19:54.810Z,4.12
2023-03-29T00:22:22.201Z,3.96
2023-03-29T00:24:49.437Z,4.04
2023-03-29T00:27:17.071Z,3.98
2023-03-29T00:29:46.248Z,3.96
2023-03-29T00:32:13.689Z,3.94
2023-03-29T00:34:43.095Z,3.81
2023-03-29T00:37:12.605Z,3.92
2023-03-29T00:39:49.811Z,3.95
2023-03-29T00:42:21.619Z,3.76
2023-03-29T00:45:14.143Z,3.88
2023-03-29T00:47:52.849Z,3.85
2023-03-29T00:50:22.831Z,3.82
2023-03-29T00:52:55.402Z,3.65
2023-03-29T00:55:25.631Z,3.72
2023-03-29T00:57:55.918Z,3.67
2023-03-29T01:00:27.120Z,3.63
2023-03-29T01:02:56.185Z,3.65
2023-03-29T01:05:38.139Z,3.65
2023-03-29T01:08:11.333Z,3.77
2023-03-29T01:11:04.770Z,3.73
2023-03-29T01:13:44.928Z,3.65
2023-03-29T01:16:13.643Z,3.75
2023-03-29T01:18:42.091Z,3.74
2023-03-29T01:21:19.606Z,3.78
2023-03-29T01:24:10.447Z,3.71
2023-03-29T01:26:57.180Z,3.81
2023-03-29T01:29:32.908Z,3.81
2023-03-29T01:35:33.722Z,3.83
2023-03-29T01:38:10.434Z,3.77
2023-03-29T01:40:40.023Z,3.78
2023-03-29T01:43:31.428Z,3.78
2023-03-29T01:46:04.438Z,3.82
2023-03-29T01:48:34.659Z,3.74
2023-03-29T01:51:09.302Z,3.65
2023-03-29T01:53:47.503Z,3.75
2023-03-29T01:56:20.934Z,3.66
2023-03-29T01:58:56.863Z,3.50
2023-03-29T02:01:26.331Z,3.56
2023-03-29T02:03:57.861Z,3.53
2023-03-29T02:06:27.204Z,3.56
2023-03-29T02:09:01.154Z,3.60
2023-03-29T02:11:29.812Z,3.63
2023-03-29T02:13:59.555Z,3.63
2023-03-29T02:16:26.930Z,3.60
2023-03-29T02:18:56.463Z,3.66
2023-03-29T02:22:16.764Z,3.77
2023-03-29T02:24:45.464Z,3.73
2023-03-29T02:27:12.847Z,3.69
2023-03-29T02:29:41.173Z,3.81
2023-03-29T02:32:16.054Z,3.69
2023-03-29T02:34:50.646Z,3.82
2023-03-29T02:37:19.166Z,3.85
2023-03-29T02:39:50.763Z,3.63
2023-03-29T02:42:20.557Z,3.83
2023-03-29T02:44:51.253Z,3.72
2023-03-29T02:47:48.915Z,3.85
2023-03-29T02:50:16.749Z,3.63
2023-03-29T02:52:53.550Z,3.73
2023-03-29T02:55:22.920Z,3.81
2023-03-29T02:57:50.515Z,3.77
2023-03-29T03:00:20.495Z,3.79
2023-03-29T03:02:48.733Z,3.93
2023-03-29T03:05:17.724Z,3.93
2023-03-29T03:08:10.401Z,3.97
2023-03-29T03:10:39.493Z,3.91
2023-03-29T03:13:07.274Z,3.89
2023-03-29T03:15:37.561Z,3.86
2023-03-29T03:18:04.815Z,3.84
2023-03-29T03:20:33.527Z,3.83
2023-03-29T03:23:03.860Z,3.80
2023-03-29T03:25:32.508Z,3.83
2023-03-29T03:28:05.193Z,3.82
2023-03-29T03:30:36.281Z,3.85
2023-03-29T03:33:29.345Z,3.98
2023-03-29T03:36:06.640Z,3.97
2023-03-29T03:38:37.653Z,4.10
2023-03-29T03:41:09.433Z,4.06
2023-03-29T03:43:36.653Z,4.19
2023-03-29T03:46:03.851Z,4.21
2023-03-29T03:48:31.823Z,4.24
2023-03-29T03:51:06.114Z,4.30
2023-03-29T03:53:35.639Z,4.28
2023-03-29T03:56:12.608Z,4.32
2023-03-29T03:58:58.580Z,4.43
2023-03-29T04:01:28.461Z,4.41
2023-03-29T04:04:19.943Z,4.46
2023-03-29T04:07:08.929Z,4.51
2023-03-29T04:09:40.864Z,4.62
2023-03-29T04:12:47.246Z,4.61
2023-03-29T04:15:17.906Z,4.65
2023-03-29T04:17:58.530Z,4.70
2023-03-29T04:20:32.511Z,4.79
2023-03-29T04:23:00.339Z,4.74
2023-03-29T04:25:29.700Z,4.86
2023-03-29T04:28:15.691Z,4.91
2023-03-29T04:30:49.631Z,4.87
2023-03-29T04:33:29.610Z,4.95
2023-03-29T04:36:00.342Z,4.98
2023-03-29T04:38:32.166Z,4.86
2023-03-29T04:41:01.419Z,5.06
2023-03-29T04:43:49.957Z,4.94
2023-03-29T04:46:30.709Z,5.12
2023-03-29T04:49:03.998Z,5.26
2023-03-29T04:51:35.734Z,5.33
2023-03-29T04:54:03.008Z,5.30
2023-03-29T04:56:33.225Z,5.31
2023-03-29T04:59:23.352Z,5.42
2023-03-29T05:01:51.722Z,5.45
2023-03-29T05:04:23.013Z,5.38
2023-03-29T05:07:37.818Z,5.51
2023-03-29T05:10:07.051Z,5.42
2023-03-29T05:12:35.142Z,5.32
2023-03-29T05:15:15.771Z,5.42
2023-03-29T05:22:02.906Z,5.47
2023-03-29T05:24:43.660Z,5.34
2023-03-29T05:31:16.696Z,5.86
2023-03-29T05:33:52.241Z,5.85
2023-03-29T05:40:07.327Z,5.86
2023-03-29T05:46:00.896Z,6.08
2023-03-29T05:48:32.825Z,6.01
2023-03-29T05:51:09.650Z,6.06
2023-03-29T05:59:38.350Z,6.32
2023-03-29T06:14:51.920Z,6.31
2023-03-29T06:17:31.729Z,6.33
2023-03-29T06:22:51.292Z,6.32
2023-03-29T06:25:20.021Z,6.43
2023-03-29T06:28:22.301Z,6.51
2023-03-29T06:31:14.826Z,6.27
2023-03-29T06:40:31.329Z,6.49
2023-03-29T06:42:59.706Z,6.38
2023-03-29T06:48:38.053Z,6.31
2023-03-29T06:51:21.889Z,6.19
2023-03-29T06:53:53.398Z,6.18
2023-03-29T06:56:22.630Z,6.15
2023-03-29T06:59:09.487Z,6.08
2023-03-29T07:01:57.177Z,6.00
2023-03-29T07:04:44.758Z,5.93
2023-03-29T07:10:47.736Z,6.07
2023-03-29T07:13:45.059Z,6.24
2023-03-29T07:16:18.850Z,6.24
2023-03-29T07:19:10.994Z,5.99
2023-03-29T07:22:02.318Z,5.83
2023-03-29T07:24:52.005Z,5.80
2023-03-29T07:27:22.130Z,5.82
2023-03-29T07:29:52.589Z,5.60
2023-03-29T07:32:26.437Z,5.54
2023-03-29T07:35:18.343Z,5.46
2023-03-29T07:37:52.592Z,5.52
2023-03-29T07:40:27.558Z,5.54
2023-03-29T07:43:02.558Z,5.65
2023-03-29T07:45:32.647Z,5.85
2023-03-29T07:48:12.256Z,5.68
2023-03-29T07:50:49.179Z,5.57
2023-03-29T07:53:21.546Z,5.77
2023-03-29T07:55:50.357Z,5.68
2023-03-29T07:58:50.834Z,5.87
2023-03-29T08:01:20.863Z,5.86
2023-03-29T08:04:13.429Z,6.04
2023-03-29T08:06:59.778Z,6.10
2023-03-29T08:09:40.916Z,6.19
2023-03-29T08:12:13.547Z,6.40
2023-03-29T08:14:42.066Z,6.54
2023-03-29T08:17:19.167Z,6.61
2023-03-29T08:19:51.059Z,6.63
2023-03-29T08:22:25.543Z,6.71
2023-03-29T08:25:08.970Z,6.84
2023-03-29T08:27:45.196Z,6.83
2023-03-29T08:30:19.520Z,6.81
2023-03-29T08:32:54.440Z,6.71
2023-03-29T08:35:30.138Z,6.65
2023-03-29T08:38:43.676Z,6.75
2023-03-29T08:41:27.740Z,6.56
2023-03-29T08:44:08.258Z,6.65
2023-03-29T08:47:07.522Z,6.62
2023-03-29T08:49:47.253Z,6.50
2023-03-29T08:52:36.676Z,6.51
2023-03-29T08:55:32.217Z,6.64
2023-03-29T08:58:33.332Z,6.54
2023-03-29T09:01:06.149Z,6.67
2023-03-29T09:04:04.562Z,6.79
2023-03-29T09:06:56.410Z,6.70
2023-03-29T09:09:33.340Z,6.58
2023-03-29T09:12:26.960Z,6.74
2023-03-29T09:15:25.399Z,6.47
2023-03-29T09:18:24.476Z,6.41
2023-03-29T09:21:01.411Z,6.28
2023-03-29T09:24:15.593Z,6.29
2023-03-29T09:29:52.147Z,6.17
2023-03-29T09:39:07.508Z,6.07
2023-03-29T09:41:42.134Z,6.08
2023-03-29T09:44:24.218Z,6.03
2023-03-29T09:47:09.784Z,6.20
2023-03-29T09:49:43.825Z,6.18
2023-03-29T09:52:13.935Z,6.26
2023-03-29T09:54:49.818Z,6.40
2023-03-29T09:57:46.414Z,6.16
2023-03-29T10:00:22.092Z,6.18
2023-03-29T10:02:58.256Z,6.23
2023-03-29T10:05:39.501Z,6.14
2023-03-29T10:08:40.955Z,6.22
2023-03-29T10:11:23.634Z,6.24
2023-03-29T10:13:57.620Z,6.31
2023-03-29T10:16:29.302Z,6.25
2023-03-29T10:18:56.708Z,6.16
2023-03-29T10:21:24.839Z,6.24
2023-03-29T10:23:58.571Z,6.10
2023-03-29T10:26:32.776Z,5.92
2023-03-29T10:29:02.386Z,5.99
2023-03-29T10:31:34.288Z,5.99
2023-03-29T10:34:04.160Z,5.96
2023-03-29T10:36:31.375Z,6.07
2023-03-29T10:39:03.535Z,6.05
2023-03-29T10:41:34.344Z,6.15
2023-03-29T10:44:02.266Z,6.06
2023-03-29T10:46:32.515Z,5.99
2023-03-29T10:49:06.388Z,6.10
2023-03-29T10:51:37.637Z,6.05
2023-03-29T10:54:10.006Z,6.02
2023-03-29T10:56:58.046Z,6.04
2023-03-29T10:59:46.854Z,6.10
2023-03-29T11:02:13.892Z,6.08
2023-03-29T11:04:47.920Z,6.08
2023-03-29T11:07:25.013Z,6.12
2023-03-29T11:10:10.882Z,6.13
2023-03-29T11:12:43.167Z,6.12
2023-03-29T11:15:34.146Z,6.08
2023-03-29T11:18:14.882Z,6.10
2023-03-29T11:21:11.887Z,6.07
2023-03-29T11:23:48.557Z,6.04
2023-03-29T11:26:30.073Z,6.01
2023-03-29T11:29:09.490Z,5.91
2023-03-29T11:32:05.496Z,6.00
2023-03-29T11:35:06.770Z,6.02
2023-03-29T11:37:52.464Z,6.06
2023-03-29T11:41:11.096Z,6.06
2023-03-29T11:43:43.043Z,6.01
2023-03-29T11:46:18.131Z,6.02
2023-03-29T11:48:57.003Z,6.00
2023-03-29T11:51:32.536Z,5.99
2023-03-29T11:54:22.120Z,5.94
2023-03-29T11:57:14.429Z,6.02
2023-03-29T11:59:49.002Z,6.12
2023-03-29T12:02:31.974Z,5.97
2023-03-29T12:05:02.763Z,6.06
2023-03-29T12:07:37.250Z,6.02
2023-03-29T12:10:15.360Z,6.01
2023-03-29T12:12:56.974Z,5.91
2023-03-29T12:15:26.914Z,5.94
2023-03-29T12:18:22.092Z,6.00
2023-03-29T12:20:57.575Z,5.86
2023-03-29T12:23:30.592Z,5.87
2023-03-29T12:26:27.950Z,5.84
2023-03-29T12:29:34.150Z,6.01
2023-03-29T12:32:02.298Z,6.02
2023-03-29T12:35:02.856Z,6.01
2023-03-29T12:38:30.926Z,5.95
2023-03-29T12:41:19.671Z,6.00
2023-03-29T12:44:06.894Z,6.09
2023-03-29T12:47:03.085Z,6.06
2023-03-29T12:49:36.427Z,6.13
2023-03-29T12:52:24.025Z,6.16
2023-03-29T12:55:34.563Z,6.16
2023-03-29T12:58:07.062Z,6.14
2023-03-29T13:03:55.180Z,6.00
2023-03-29T13:06:42.705Z,5.96
2023-03-29T13:09:36.823Z,5.95
2023-03-29T13:15:15.792Z,5.87
2023-03-29T13:18:04.613Z,5.88
2023-03-29T13:21:04.431Z,5.91
2023-03-29T13:24:23.012Z,5.77
2023-03-29T13:26:55.806Z,5.94
2023-03-29T13:29:50.196Z,5.88
2023-03-29T13:32:22.750Z,5.88
2023-03-29T13:35:02.000Z,5.86
2023-03-29T13:38:05.487Z,5.72
2023-03-29T13:40:44.319Z,5.83
2023-03-29T13:43:37.729Z,5.79
2023-03-29T13:46:16.932Z,5.74
2023-03-29T13:48:55.300Z,5.61
2023-03-29T13:51:28.800Z,5.63
2023-03-29T13:54:11.093Z,5.73
2023-03-29T13:56:40.639Z,5.55
2023-03-29T13:59:19.304Z,5.58
2023-03-29T14:01:53.785Z,5.55
2023-03-29T14:07:37.707Z,5.62
2023-03-29T14:10:05.307Z,5.64
2023-03-29T14:12:38.883Z,5.78
2023-03-29T14:15:18.259Z,5.65
2023-03-29T14:17:45.326Z,5.78
2023-03-29T14:20:16.659Z,5.82
2023-03-29T14:22:44.511Z,5.74
2023-03-29T14:25:17.488Z,5.82
2023-03-29T14:27:46.033Z,5.77
2023-03-29T14:30:29.859Z,5.62
2023-03-29T14:32:58.358Z,5.74
2023-03-29T14:35:31.482Z,5.78
2023-03-29T14:37:59.344Z,5.78
2023-03-29T14:40:27.880Z,5.83
2023-03-29T14:42:56.514Z,5.84
2023-03-29T14:45:27.223Z,5.74
2023-03-29T14:47:54.497Z,5.81
2023-03-29T14:50:32.869Z,5.81
2023-03-29T14:53:00.759Z,5.87
2023-03-29T14:55:31.730Z,5.81
2023-03-29T14:58:00.447Z,5.70
2023-03-29T15:00:42.602Z,5.80
2023-03-29T15:03:18.746Z,5.77
2023-03-29T15:05:54.274Z,5.62
2023-03-29T15:08:35.073Z,5.72
2023-03-29T15:17:51.738Z,5.76
2023-03-29T15:20:32.711Z,5.80
2023-03-29T15:23:10.325Z,5.81
2023-03-29T15:26:04.961Z,5.63
2023-03-29T15:28:50.677Z,5.68
2023-03-29T15:31:27.914Z,5.72
2023-03-29T15:34:09.651Z,5.82
2023-03-29T15:36:59.887Z,5.64
2023-03-29T15:39:29.495Z,5.83
2023-03-29T15:42:01.093Z,5.84
2023-03-29T15:45:00.194Z,5.68
2023-03-29T15:47:35.623Z,5.80
2023-03-29T15:50:03.126Z,5.72
2023-03-29T15:52:30.665Z,5.67
2023-03-29T15:54:57.761Z,5.72
2023-03-29T16:05:48.403Z,5.78
2023-03-29T16:08:46.690Z,5.85
2023-03-29T16:11:19.836Z,5.67
2023-03-29T16:13:48.958Z,5.79
2023-03-29T16:16:27.434Z,5.74
2023-03-29T16:18:56.816Z,5.63
2023-03-29T16:21:26.105Z,5.83
2023-03-29T16:23:53.604Z,5.75
2023-03-29T16:29:10.972Z,5.78
2023-03-29T16:31:44.626Z,5.86
2023-03-29T16:40:36.156Z,5.80
2023-03-29T16:43:06.872Z,5.75
2023-03-29T16:45:41.849Z,5.69
2023-03-29T16:48:20.514Z,5.87
2023-03-29T16:56:12.779Z,5.81
2023-03-29T16:58:45.327Z,5.82
2023-03-29T17:01:14.721Z,5.75
2023-03-29T17:03:43.120Z,5.83
2023-03-29T17:06:21.678Z,5.86
2023-03-29T17:08:52.928Z,5.68
2023-03-29T17:11:23.890Z,5.75
2023-03-29T17:13:55.688Z,5.80
2023-03-29T17:16:23.382Z,5.75
2023-03-29T17:18:52.549Z,5.81
2023-03-29T17:21:24.423Z,5.72
2023-03-29T17:24:01.876Z,5.86
2023-03-29T17:26:38.980Z,5.85
2023-03-29T17:29:09.078Z,5.77
2023-03-29T17:31:47.153Z,5.74
2023-03-29T17:34:15.621Z,5.78
2023-03-29T17:36:45.995Z,5.70
2023-03-29T17:39:22.928Z,5.65
2023-03-29T17:41:53.695Z,5.77
2023-03-29T17:44:23.553Z,5.78
2023-03-29T17:46:54.714Z,5.75
2023-03-29T17:52:32.794Z,5.71
2023-03-29T17:55:05.955Z,5.79
2023-03-29T17:58:04.272Z,5.83
2023-03-29T18:00:31.862Z,5.78
2023-03-29T18:03:02.369Z,5.69
2023-03-29T18:05:39.102Z,5.75
2023-03-29T18:13:50.422Z,5.72
2023-03-29T18:16:18.832Z,5.61
2023-03-29T18:18:47.847Z,5.68
2023-03-29T18:21:16.265Z,5.71
2023-03-29T18:23:47.648Z,5.73
2023-03-29T18:26:16.313Z,5.69
2023-03-29T18:28:48.239Z,5.78
2023-03-29T18:31:17.238Z,5.78
2023-03-29T18:33:44.671Z,5.60
2023-03-29T18:36:13.328Z,5.63
2023-03-29T18:38:43.547Z,5.63
2023-03-29T18:41:12.352Z,5.60
2023-03-29T18:43:40.731Z,5.63
2023-03-29T18:46:11.404Z,5.67
2023-03-29T18:48:39.243Z,5.74
2023-03-29T18:51:12.808Z,5.72
2023-03-29T18:53:42.236Z,5.72
2023-03-29T18:56:10.074Z,5.56
2023-03-29T18:58:38.411Z,5.56
2023-03-29T19:01:06.478Z,5.73
2023-03-29T19:03:35.242Z,5.69
2023-03-29T19:06:03.769Z,5.69
2023-03-29T19:08:33.174Z,5.64
2023-03-29T19:11:03.517Z,5.67
2023-03-29T19:13:30.690Z,5.63
2023-03-29T19:15:59.266Z,5.58
2023-03-29T19:18:29.585Z,5.68
2023-03-29T19:20:56.792Z,5.59
2023-03-29T19:23:28.650Z,5.59
2023-03-29T19:25:57.717Z,5.50
2023-03-29T19:28:29.527Z,5.67
2023-03-29T19:30:58.947Z,5.56
2023-03-29T19:33:26.878Z,5.67
2023-03-29T19:35:54.688Z,5.68
2023-03-29T19:38:22.090Z,5.51
2023-03-29T19:40:56.962Z,5.50
2023-03-29T19:43:25.059Z,5.64
2023-03-29T19:45:52.081Z,5.52
2023-03-29T19:48:23.174Z,5.64
2023-03-29T19:50:51.546Z,5.48
2023-03-29T19:53:18.777Z,5.56
2023-03-29T19:55:46.600Z,5.44
2023-03-29T19:58:14.305Z,5.42
2023-03-29T20:00:41.973Z,5.54
2023-03-29T20:03:09.904Z,5.43
2023-03-29T20:05:38.488Z,5.58
2023-03-29T20:08:06.698Z,5.51
2023-03-29T20:10:35.867Z,5.60
2023-03-29T20:13:06.702Z,5.55
2023-03-29T20:15:35.383Z,5.64
2023-03-29T20:18:02.541Z,5.64
2023-03-29T20:20:30.077Z,5.59
2023-03-29T20:23:05.283Z,5.54
2023-03-29T20:25:35.786Z,5.51
2023-03-29T20:28:04.231Z,5.59
2023-03-29T20:30:31.614Z,5.48
2023-03-29T20:32:58.741Z,5.48
2023-03-29T20:35:26.174Z,5.57
2023-03-29T20:37:53.673Z,5.48
2023-03-29T20:40:21.070Z,5.69
2023-03-29T20:42:49.083Z,5.51
2023-03-29T20:45:19.293Z,5.56
2023-03-29T20:47:50.609Z,5.51
2023-03-29T20:50:19.051Z,5.59
2023-03-29T20:52:47.490Z,5.62
2023-03-29T20:55:22.323Z,5.49
2023-03-29T20:57:56.899Z,5.48
2023-03-29T21:00:25.746Z,5.62
2023-03-29T21:02:58.854Z,5.51
2023-03-29T21:05:31.279Z,5.49
2023-03-29T21:07:58.416Z,5.57
2023-03-29T21:10:26.436Z,5.42
2023-03-29T21:13:00.521Z,5.56
2023-03-29T21:15:29.540Z,5.40
2023-03-29T21:17:56.924Z,5.53
2023-03-29T21:20:24.335Z,5.55
2023-03-29T21:22:51.743Z,5.55
2023-03-29T21:25:19.366Z,5.55
2023-03-29T21:27:46.591Z,5.52
2023-03-29T21:30:13.962Z,5.53
2023-03-29T21:32:41.374Z,5.43
2023-03-29T21:35:09.242Z,5.61
2023-03-29T21:37:36.297Z,5.57
2023-03-29T21:40:10.777Z,5.55
2023-03-29T21:42:40.446Z,5.62
2023-03-29T21:45:11.262Z,5.64
2023-03-29T21:47:38.394Z,5.54
2023-03-29T21:50:06.513Z,5.67
2023-03-29T21:52:33.538Z,5.56
2023-03-29T21:55:00.601Z,5.56
2023-03-29T21:57:27.746Z,5.57
2023-03-29T21:59:54.891Z,5.56
2023-03-29T22:02:23.543Z,5.59
2023-03-29T22:04:50.822Z,5.56
2023-03-29T22:07:17.941Z,5.62
2023-03-29T22:09:47.395Z,5.59
2023-03-29T22:12:15.266Z,5.48
2023-03-29T22:14:42.275Z,5.49
2023-03-29T22:17:11.770Z,5.59
2023-03-29T22:19:39.829Z,5.60
2023-03-29T22:22:14.014Z,5.56
2023-03-29T22:24:42.239Z,5.51
2023-03-29T22:27:10.622Z,5.60
2023-03-29T22:29:37.664Z,5.49
2023-03-29T22:32:04.982Z,5.53
2023-03-29T22:34:32.251Z,5.55
2023-03-29T22:36:59.353Z,5.50
2023-03-29T22:39:26.400Z,5.46
2023-03-29T22:41:53.380Z,5.51
2023-03-29T22:44:20.446Z,5.43
2023-03-29T22:46:47.542Z,5.60
2023-03-29T22:49:14.633Z,5.50
2023-03-29T22:51:41.709Z,5.52
2023-03-29T22:54:08.860Z,5.49
2023-03-29T22:56:36.110Z,5.58
2023-03-29T22:59:03.147Z,5.50
2023-03-29T23:01:30.487Z,5.56
2023-03-29T23:03:57.525Z,5.47
2023-03-29T23:06:24.531Z,5.60
2023-03-29T23:08:51.710Z,5.61
2023-03-29T23:11:18.690Z,5.63
2023-03-29T23:13:49.023Z,5.60
2023-03-29T23:16:16.621Z,5.50
2023-03-29T23:18:43.664Z,5.46
2023-03-29T23:21:10.888Z,5.53
2023-03-29T23:23:39.069Z,5.51
2023-03-29T23:26:08.615Z,5.51
2023-03-29T23:28:35.791Z,5.49
2023-03-29T23:31:05.713Z,5.47
2023-03-29T23:33:35.311Z,5.50
2023-03-29T23:36:04.207Z,5.55
2023-03-29T23:38:33.388Z,5.54
2023-03-29T23:41:02.349Z,5.53
2023-03-29T23:43:34.651Z,5.43
2023-03-29T23:46:04.408Z,5.38
2023-03-29T23:48:32.447Z,5.45
2023-03-29T23:51:01.417Z,5.27
2023-03-29T23:53:29.262Z,5.34
2023-03-29T23:55:58.532Z,5.21
2023-03-29T23:58:25.637Z,5.24
